sensor_id;sensor_type;location;lat;lon;timestamp;pressure;altitude;pressure_sealevel;temperature;humidity
39177;BME280;24904;52.208;21.192;2024-03-23T00:53:40;99707.70;;;9.58;84.80
39177;BME280;24904;52.208;21.192;2024-03-23T00:58:44;99700.86;;;9.55;84.92
39177;BME280;24904;52.208;21.192;2024-03-23T01:03:49;99689.58;;;9.50;85.19
39177;BME280;24904;52.208;21.192;2024-03-23T01:08:54;99681.27;;;9.46;85.64
39177;BME280;24904;52.208;21.192;2024-03-23T01:13:58;99673.29;;;9.47;85.82
39177;BME280;24904;52.208;21.192;2024-03-23T01:19:03;99666.15;;;9.45;85.93
39177;BME280;24904;52.208;21.192;2024-03-23T01:24:09;99668.09;;;9.43;86.12
39177;BME280;24904;52.208;21.192;2024-03-23T01:29:14;99661.48;;;9.40;86.48
39177;BME280;24904;52.208;21.192;2024-03-23T01:34:19;99650.92;;;9.36;86.36
39177;BME280;24904;52.208;21.192;2024-03-23T01:39:24;99647.86;;;9.37;86.89
39177;BME280;24904;52.208;21.192;2024-03-23T01:44:28;99651.63;;;9.37;86.97
39177;BME280;24904;52.208;21.192;2024-03-23T01:49:34;99649.42;;;9.35;87.15
39177;BME280;24904;52.208;21.192;2024-03-23T01:54:39;99652.41;;;9.36;87.44
39177;BME280;24904;52.208;21.192;2024-03-23T01:59:44;99653.04;;;9.36;87.63
39177;BME280;24904;52.208;21.192;2024-03-23T02:04:51;99638.30;;;9.34;87.77
39177;BME280;24904;52.208;21.192;2024-03-23T02:09:56;99639.02;;;9.33;87.97
39177;BME280;24904;52.208;21.192;2024-03-23T02:15:01;99636.98;;;9.35;88.01
39177;BME280;24904;52.208;21.192;2024-03-23T02:20:06;99627.27;;;9.35;88.28
39177;BME280;24904;52.208;21.192;2024-03-23T02:25:11;99624.52;;;9.32;88.37
39177;BME280;24904;52.208;21.192;2024-03-23T02:30:16;99626.80;;;9.31;88.49
39177;BME280;24904;52.208;21.192;2024-03-23T02:35:20;99619.59;;;9.33;88.81
39177;BME280;24904;52.208;21.192;2024-03-23T02:40:25;99614.28;;;9.34;88.79
39177;BME280;24904;52.208;21.192;2024-03-23T02:45:30;99610.59;;;9.34;89.19
39177;BME280;24904;52.208;21.192;2024-03-23T02:50:35;99609.19;;;9.34;89.29
39177;BME280;24904;52.208;21.192;2024-03-23T02:55:39;99605.83;;;9.33;89.19
39177;BME280;24904;52.208;21.192;2024-03-23T03:00:44;99597.92;;;9.33;89.45
39177;BME280;24904;52.208;21.192;2024-03-23T03:05:49;99597.38;;;9.34;89.58
39177;BME280;24904;52.208;21.192;2024-03-23T03:10:58;99587.98;;;9.35;89.76
39177;BME280;24904;52.208;21.192;2024-03-23T03:16:03;99578.90;;;9.36;89.98
39177;BME280;24904;52.208;21.192;2024-03-23T03:21:12;99577.65;;;9.37;89.94
39177;BME280;24904;52.208;21.192;2024-03-23T03:26:17;99569.05;;;9.38;90.23
39177;BME280;24904;52.208;21.192;2024-03-23T03:31:22;99568.73;;;9.36;90.12
39177;BME280;24904;52.208;21.192;2024-03-23T03:36:26;99574.05;;;9.37;90.40
39177;BME280;24904;52.208;21.192;2024-03-23T03:41:32;99577.65;;;9.37;90.59
39177;BME280;24904;52.208;21.192;2024-03-23T03:46:37;99582.02;;;9.35;90.72
39177;BME280;24904;52.208;21.192;2024-03-23T03:51:41;99586.10;;;9.34;90.85
39177;BME280;24904;52.208;21.192;2024-03-23T03:56:46;99582.42;;;9.34;91.01
39177;BME280;24904;52.208;21.192;2024-03-23T04:01:51;99580.62;;;9.33;91.37
39177;BME280;24904;52.208;21.192;2024-03-23T04:07:00;99573.96;;;9.33;91.57
39177;BME280;24904;52.208;21.192;2024-03-23T04:12:06;99568.26;;;9.34;91.54
39177;BME280;24904;52.208;21.192;2024-03-23T04:17:11;99571.77;;;9.37;91.93
39177;BME280;24904;52.208;21.192;2024-03-23T04:22:16;99558.23;;;9.38;91.80
39177;BME280;24904;52.208;21.192;2024-03-23T04:27:21;99555.42;;;9.37;92.07
39177;BME280;24904;52.208;21.192;2024-03-23T04:32:26;99550.95;;;9.38;91.99
39177;BME280;24904;52.208;21.192;2024-03-23T04:37:31;99541.41;;;9.37;91.94
39177;BME280;24904;52.208;21.192;2024-03-23T04:42:35;99532.57;;;9.37;92.32
39177;BME280;24904;52.208;21.192;2024-03-23T04:47:40;99528.34;;;9.38;92.34
39177;BME280;24904;52.208;21.192;2024-03-23T04:52:45;99528.26;;;9.38;92.20
39177;BME280;24904;52.208;21.192;2024-03-23T04:57:50;99528.25;;;9.40;92.47
39177;BME280;24904;52.208;21.192;2024-03-23T05:02:55;99523.88;;;9.40;92.61
39177;BME280;24904;52.208;21.192;2024-03-23T05:07:59;99516.05;;;9.40;92.42
39177;BME280;24904;52.208;21.192;2024-03-23T05:13:04;99507.20;;;9.41;92.63
39177;BME280;24904;52.208;21.192;2024-03-23T05:18:10;99494.29;;;9.42;92.60
39177;BME280;24904;52.208;21.192;2024-03-23T05:23:14;99507.62;;;9.43;92.84
39177;BME280;24904;52.208;21.192;2024-03-23T05:28:19;99513.95;;;9.46;92.69
39177;BME280;24904;52.208;21.192;2024-03-23T05:33:24;99514.19;;;9.47;92.80
39177;BME280;24904;52.208;21.192;2024-03-23T05:38:28;99504.10;;;9.46;92.71
39177;BME280;24904;52.208;21.192;2024-03-23T05:43:33;99494.00;;;9.46;92.77
39177;BME280;24904;52.208;21.192;2024-03-23T05:48:38;99501.20;;;9.46;92.74
39177;BME280;24904;52.208;21.192;2024-03-23T05:53:43;99505.02;;;9.46;93.00
39177;BME280;24904;52.208;21.192;2024-03-23T05:58:47;99498.77;;;9.48;92.92
39177;BME280;24904;52.208;21.192;2024-03-23T06:03:52;99496.42;;;9.48;92.95
39177;BME280;24904;52.208;21.192;2024-03-23T06:08:57;99498.06;;;9.51;93.09
39177;BME280;24904;52.208;21.192;2024-03-23T06:14:02;99488.52;;;9.51;93.19
39177;BME280;24904;52.208;21.192;2024-03-23T06:19:07;99476.30;;;9.52;93.07
39177;BME280;24904;52.208;21.192;2024-03-23T06:24:12;99476.61;;;9.51;93.14
39177;BME280;24904;52.208;21.192;2024-03-23T06:29:16;99491.56;;;9.52;93.37
39177;BME280;24904;52.208;21.192;2024-03-23T06:34:21;99483.19;;;9.54;93.24
39177;BME280;24904;52.208;21.192;2024-03-23T06:39:26;99480.92;;;9.58;93.31
39177;BME280;24904;52.208;21.192;2024-03-23T06:44:31;99476.09;;;9.60;93.42
39177;BME280;24904;52.208;21.192;2024-03-23T06:49:35;99467.23;;;9.61;93.30
39177;BME280;24904;52.208;21.192;2024-03-23T06:54:40;99471.14;;;9.63;93.27
39177;BME280;24904;52.208;21.192;2024-03-23T06:59:45;99462.92;;;9.64;93.44
39177;BME280;24904;52.208;21.192;2024-03-23T07:04:49;99452.65;;;9.65;93.40
39177;BME280;24904;52.208;21.192;2024-03-23T07:09:54;99443.89;;;9.68;93.18
39177;BME280;24904;52.208;21.192;2024-03-23T07:14:59;99449.75;;;9.69;93.57
39177;BME280;24904;52.208;21.192;2024-03-23T07:20:04;99446.64;;;9.72;93.41
39177;BME280;24904;52.208;21.192;2024-03-23T07:25:13;99446.80;;;9.74;93.47
39177;BME280;24904;52.208;21.192;2024-03-23T07:30:18;99440.83;;;9.76;93.47
39177;BME280;24904;52.208;21.192;2024-03-23T07:35:23;99442.16;;;9.75;93.59
39177;BME280;24904;52.208;21.192;2024-03-23T07:40:29;99439.89;;;9.76;93.62
39177;BME280;24904;52.208;21.192;2024-03-23T07:45:33;99436.05;;;9.79;93.80
39177;BME280;24904;52.208;21.192;2024-03-23T07:50:38;99433.30;;;9.79;93.58
39177;BME280;24904;52.208;21.192;2024-03-23T07:55:43;99427.36;;;9.78;93.75
39177;BME280;24904;52.208;21.192;2024-03-23T08:00:56;99413.88;;;9.79;93.79
39177;BME280;24904;52.208;21.192;2024-03-23T08:06:08;99402.52;;;9.81;93.89
39177;BME280;24904;52.208;21.192;2024-03-23T08:11:13;99391.39;;;9.80;93.61
39177;BME280;24904;52.208;21.192;2024-03-23T08:16:17;99390.92;;;9.81;94.04
39177;BME280;24904;52.208;21.192;2024-03-23T08:21:22;99375.02;;;9.86;93.98
39177;BME280;24904;52.208;21.192;2024-03-23T08:26:28;99358.09;;;9.91;94.29
39177;BME280;24904;52.208;21.192;2024-03-23T08:31:33;99360.11;;;9.98;94.92
39177;BME280;24904;52.208;21.192;2024-03-23T08:36:38;99358.77;;;10.04;94.70
39177;BME280;24904;52.208;21.192;2024-03-23T08:41:42;99353.71;;;10.11;94.62
39177;BME280;24904;52.208;21.192;2024-03-23T08:46:49;99349.09;;;10.16;94.67
39177;BME280;24904;52.208;21.192;2024-03-23T08:51:54;99340.77;;;10.18;94.46
39177;BME280;24904;52.208;21.192;2024-03-23T08:56:59;99325.88;;;10.21;94.26
39177;BME280;24904;52.208;21.192;2024-03-23T09:02:04;99320.29;;;10.28;94.46
39177;BME280;24904;52.208;21.192;2024-03-23T09:07:08;99313.34;;;10.39;94.78
39177;BME280;24904;52.208;21.192;2024-03-23T09:12:13;99298.84;;;10.51;94.96
39177;BME280;24904;52.208;21.192;2024-03-23T09:17:18;99290.47;;;10.62;94.61
39177;BME280;24904;52.208;21.192;2024-03-23T09:22:23;99284.76;;;10.70;94.42
39177;BME280;24904;52.208;21.192;2024-03-23T09:27:27;99277.83;;;10.84;94.79
39177;BME280;24904;52.208;21.192;2024-03-23T09:32:32;99270.12;;;10.96;94.23
39177;BME280;24904;52.208;21.192;2024-03-23T09:37:36;99258.89;;;11.06;93.88
39177;BME280;24904;52.208;21.192;2024-03-23T09:42:43;99246.70;;;11.19;94.07
39177;BME280;24904;52.208;21.192;2024-03-23T09:47:54;99227.48;;;11.40;94.46
39177;BME280;24904;52.208;21.192;2024-03-23T09:52:59;99232.31;;;11.58;93.40
39177;BME280;24904;52.208;21.192;2024-03-23T09:58:05;99232.38;;;11.65;92.26
39177;BME280;24904;52.208;21.192;2024-03-23T10:03:10;99224.70;;;11.72;92.20
39177;BME280;24904;52.208;21.192;2024-03-23T10:08:21;99212.05;;;11.78;91.43
39177;BME280;24904;52.208;21.192;2024-03-23T10:13:27;99204.96;;;11.88;91.40
39177;BME280;24904;52.208;21.192;2024-03-23T10:18:32;99194.78;;;12.03;91.29
39177;BME280;24904;52.208;21.192;2024-03-23T10:23:42;99160.03;;;12.14;90.44
39177;BME280;24904;52.208;21.192;2024-03-23T10:28:58;99143.35;;;12.30;89.44
39177;BME280;24904;52.208;21.192;2024-03-23T10:34:04;99121.52;;;12.43;88.52
39177;BME280;24904;52.208;21.192;2024-03-23T10:39:09;99105.99;;;12.58;87.62
39177;BME280;24904;52.208;21.192;2024-03-23T10:44:15;99097.73;;;12.76;87.46
39177;BME280;24904;52.208;21.192;2024-03-23T10:49:21;99085.27;;;12.91;86.67
39177;BME280;24904;52.208;21.192;2024-03-23T10:54:27;99075.70;;;13.05;85.77
39177;BME280;24904;52.208;21.192;2024-03-23T10:59:34;99065.67;;;13.19;85.10
39177;BME280;24904;52.208;21.192;2024-03-23T11:04:41;99062.66;;;13.36;84.90
39177;BME280;24904;52.208;21.192;2024-03-23T11:09:46;99041.54;;;13.54;84.69
39177;BME280;24904;52.208;21.192;2024-03-23T11:14:55;99029.45;;;13.70;83.54
39177;BME280;24904;52.208;21.192;2024-03-23T11:20:01;99017.32;;;13.83;82.34
39177;BME280;24904;52.208;21.192;2024-03-23T11:25:14;99016.15;;;13.95;81.94
39177;BME280;24904;52.208;21.192;2024-03-23T11:30:20;99010.89;;;14.13;81.40
39177;BME280;24904;52.208;21.192;2024-03-23T11:35:30;99003.30;;;14.26;80.68
39177;BME280;24904;52.208;21.192;2024-03-23T11:40:37;98997.33;;;14.34;79.63
39177;BME280;24904;52.208;21.192;2024-03-23T11:45:44;98985.52;;;14.37;78.95
39177;BME280;24904;52.208;21.192;2024-03-23T11:50:50;98978.48;;;14.34;78.36
39177;BME280;24904;52.208;21.192;2024-03-23T11:55:57;98974.27;;;14.35;78.16
39177;BME280;24904;52.208;21.192;2024-03-23T12:01:02;98959.29;;;14.44;78.45
39177;BME280;24904;52.208;21.192;2024-03-23T12:06:08;98946.64;;;14.52;77.26
39177;BME280;24904;52.208;21.192;2024-03-23T12:11:15;98936.77;;;14.55;76.55
39177;BME280;24904;52.208;21.192;2024-03-23T12:16:20;98930.36;;;14.58;75.89
39177;BME280;24904;52.208;21.192;2024-03-23T12:21:25;98919.55;;;14.64;75.71
39177;BME280;24904;52.208;21.192;2024-03-23T12:26:30;98912.77;;;14.69;74.02
39177;BME280;24904;52.208;21.192;2024-03-23T12:31:34;98907.69;;;14.72;73.14
39177;BME280;24904;52.208;21.192;2024-03-23T12:36:39;98903.51;;;14.78;73.04
39177;BME280;24904;52.208;21.192;2024-03-23T12:41:43;98884.96;;;14.88;72.38
39177;BME280;24904;52.208;21.192;2024-03-23T12:46:48;98876.73;;;14.94;71.20
39177;BME280;24904;52.208;21.192;2024-03-23T12:51:56;98867.92;;;14.93;70.74
39177;BME280;24904;52.208;21.192;2024-03-23T12:57:01;98862.06;;;14.91;70.31
39177;BME280;24904;52.208;21.192;2024-03-23T13:02:06;98853.98;;;14.86;70.29
39177;BME280;24904;52.208;21.192;2024-03-23T13:07:11;98842.04;;;14.80;69.76
39177;BME280;24904;52.208;21.192;2024-03-23T13:12:16;98832.85;;;14.72;69.54
39177;BME280;24904;52.208;21.192;2024-03-23T13:17:21;98825.52;;;14.67;69.26
39177;BME280;24904;52.208;21.192;2024-03-23T13:22:26;98815.45;;;14.61;69.33
39177;BME280;24904;52.208;21.192;2024-03-23T13:27:31;98800.84;;;14.58;69.58
39177;BME280;24904;52.208;21.192;2024-03-23T13:32:36;98791.10;;;14.54;69.11
39177;BME280;24904;52.208;21.192;2024-03-23T13:37:41;98778.00;;;14.52;68.80
39177;BME280;24904;52.208;21.192;2024-03-23T13:42:46;98766.05;;;14.51;68.21
39177;BME280;24904;52.208;21.192;2024-03-23T13:47:51;98752.98;;;14.52;67.93
39177;BME280;24904;52.208;21.192;2024-03-23T13:52:55;98747.14;;;14.52;67.84
39177;BME280;24904;52.208;21.192;2024-03-23T13:58:00;98737.73;;;14.53;67.38
39177;BME280;24904;52.208;21.192;2024-03-23T14:03:05;98732.40;;;14.54;67.01
39177;BME280;24904;52.208;21.192;2024-03-23T14:08:11;98721.66;;;14.54;67.10
39177;BME280;24904;52.208;21.192;2024-03-23T14:13:15;98719.16;;;14.53;67.01
39177;BME280;24904;52.208;21.192;2024-03-23T14:18:21;98715.05;;;14.51;67.02
39177;BME280;24904;52.208;21.192;2024-03-23T14:23:26;98704.42;;;14.47;67.59
39177;BME280;24904;52.208;21.192;2024-03-23T14:28:32;98683.56;;;14.41;68.45
39177;BME280;24904;52.208;21.192;2024-03-23T14:33:37;98661.00;;;14.32;68.91
39177;BME280;24904;52.208;21.192;2024-03-23T14:38:48;98645.05;;;14.23;69.80
39177;BME280;24904;52.208;21.192;2024-03-23T14:43:53;98640.30;;;14.14;70.59
39177;BME280;24904;52.208;21.192;2024-03-23T14:48:59;98633.23;;;14.05;70.89
39177;BME280;24904;52.208;21.192;2024-03-23T14:54:05;98632.23;;;13.97;71.33
39177;BME280;24904;52.208;21.192;2024-03-23T14:59:09;98639.42;;;13.90;71.02
39177;BME280;24904;52.208;21.192;2024-03-23T15:04:14;98646.82;;;13.88;70.91
39177;BME280;24904;52.208;21.192;2024-03-23T15:09:18;98664.79;;;13.86;71.68
39177;BME280;24904;52.208;21.192;2024-03-23T15:14:24;98655.80;;;13.76;73.65
39177;BME280;24904;52.208;21.192;2024-03-23T15:19:29;98661.51;;;13.58;75.09
39177;BME280;24904;52.208;21.192;2024-03-23T15:24:34;98671.25;;;13.42;75.88
39177;BME280;24904;52.208;21.192;2024-03-23T15:29:39;98690.99;;;13.25;76.94
39177;BME280;24904;52.208;21.192;2024-03-23T15:34:45;98715.27;;;13.02;77.15
39177;BME280;24904;52.208;21.192;2024-03-23T15:39:50;98730.05;;;12.78;77.56
39177;BME280;24904;52.208;21.192;2024-03-23T15:44:55;98752.74;;;12.49;79.14
39177;BME280;24904;52.208;21.192;2024-03-23T15:50:00;98774.45;;;12.23;80.45
39177;BME280;24904;52.208;21.192;2024-03-23T15:55:05;98791.79;;;12.07;81.48
39177;BME280;24904;52.208;21.192;2024-03-23T16:00:12;98807.90;;;11.99;82.53
39177;BME280;24904;52.208;21.192;2024-03-23T16:05:17;98791.51;;;11.89;83.15
39177;BME280;24904;52.208;21.192;2024-03-23T16:10:21;98775.67;;;11.78;83.49
39177;BME280;24904;52.208;21.192;2024-03-23T16:15:26;98743.96;;;11.68;83.49
39177;BME280;24904;52.208;21.192;2024-03-23T16:20:31;98682.81;;;11.62;84.15
39177;BME280;24904;52.208;21.192;2024-03-23T16:25:37;98661.88;;;11.57;84.44
39177;BME280;24904;52.208;21.192;2024-03-23T16:30:45;98630.66;;;11.55;85.01
39177;BME280;24904;52.208;21.192;2024-03-23T16:36:00;98672.32;;;11.49;85.41
39177;BME280;24904;52.208;21.192;2024-03-23T16:41:06;98654.70;;;11.42;85.84
39177;BME280;24904;52.208;21.192;2024-03-23T16:46:11;98672.00;;;11.37;86.28
39177;BME280;24904;52.208;21.192;2024-03-23T16:51:17;98657.02;;;11.33;86.54
39177;BME280;24904;52.208;21.192;2024-03-23T16:56:22;98652.41;;;11.32;86.89
39177;BME280;24904;52.208;21.192;2024-03-23T17:01:27;98665.39;;;11.34;87.27
39177;BME280;24904;52.208;21.192;2024-03-23T17:06:31;98665.13;;;11.35;87.44
39177;BME280;24904;52.208;21.192;2024-03-23T17:11:36;98685.19;;;11.37;87.42
39177;BME280;24904;52.208;21.192;2024-03-23T17:16:41;98681.80;;;11.34;87.36
39177;BME280;24904;52.208;21.192;2024-03-23T17:21:47;98682.54;;;11.28;87.45
39177;BME280;24904;52.208;21.192;2024-03-23T17:26:51;98679.23;;;11.24;87.64
39177;BME280;24904;52.208;21.192;2024-03-23T17:31:56;98683.04;;;11.18;87.49
39177;BME280;24904;52.208;21.192;2024-03-23T17:37:01;98682.98;;;11.12;87.55
39177;BME280;24904;52.208;21.192;2024-03-23T17:42:06;98689.09;;;11.09;88.16
39177;BME280;24904;52.208;21.192;2024-03-23T17:47:10;98699.02;;;11.07;88.02
39177;BME280;24904;52.208;21.192;2024-03-23T17:52:15;98694.52;;;11.04;87.85
39177;BME280;24904;52.208;21.192;2024-03-23T17:57:20;98707.71;;;11.00;87.96
39177;BME280;24904;52.208;21.192;2024-03-23T18:02:24;98720.20;;;10.98;88.14
39177;BME280;24904;52.208;21.192;2024-03-23T18:07:29;98726.23;;;10.93;88.23
39177;BME280;24904;52.208;21.192;2024-03-23T18:12:34;98743.07;;;10.91;88.35
39177;BME280;24904;52.208;21.192;2024-03-23T18:17:38;98756.64;;;10.87;88.08
39177;BME280;24904;52.208;21.192;2024-03-23T18:22:44;98759.75;;;10.83;87.93
39177;BME280;24904;52.208;21.192;2024-03-23T18:27:49;98767.80;;;10.80;87.95
39177;BME280;24904;52.208;21.192;2024-03-23T18:32:55;98775.03;;;10.79;88.15
39177;BME280;24904;52.208;21.192;2024-03-23T18:38:00;98780.00;;;10.78;87.88
39177;BME280;24904;52.208;21.192;2024-03-23T18:43:05;98778.98;;;10.77;87.68
39177;BME280;24904;52.208;21.192;2024-03-23T18:48:10;98782.17;;;10.74;87.09
39177;BME280;24904;52.208;21.192;2024-03-23T18:53:14;98794.67;;;10.67;86.66
39177;BME280;24904;52.208;21.192;2024-03-23T18:58:19;98807.16;;;10.54;86.51
39177;BME280;24904;52.208;21.192;2024-03-23T19:03:24;98840.84;;;10.33;86.07
39177;BME280;24904;52.208;21.192;2024-03-23T19:08:29;98869.58;;;9.96;84.99
39177;BME280;24904;52.208;21.192;2024-03-23T19:13:34;98892.37;;;9.38;83.72
39177;BME280;24904;52.208;21.192;2024-03-23T19:18:39;98916.96;;;8.88;84.03
39177;BME280;24904;52.208;21.192;2024-03-23T19:23:44;98936.61;;;8.46;83.58
39177;BME280;24904;52.208;21.192;2024-03-23T19:28:50;98963.96;;;8.03;83.38
39177;BME280;24904;52.208;21.192;2024-03-23T19:33:54;98987.09;;;7.75;82.78
39177;BME280;24904;52.208;21.192;2024-03-23T19:38:59;99016.64;;;7.43;82.03
39177;BME280;24904;52.208;21.192;2024-03-23T19:44:05;99046.06;;;7.18;81.91
39177;BME280;24904;52.208;21.192;2024-03-23T19:49:10;99075.35;;;6.93;82.43
39177;BME280;24904;52.208;21.192;2024-03-23T19:54:14;99097.34;;;6.65;82.50
39177;BME280;24904;52.208;21.192;2024-03-23T19:59:19;99111.66;;;6.42;83.12
39177;BME280;24904;52.208;21.192;2024-03-23T20:04:24;99110.63;;;6.30;84.34
39177;BME280;24904;52.208;21.192;2024-03-23T20:09:29;99110.00;;;6.17;84.34
39177;BME280;24904;52.208;21.192;2024-03-23T20:14:34;99133.31;;;5.97;83.89
39177;BME280;24904;52.208;21.192;2024-03-23T20:19:39;99153.77;;;5.80;84.22
39177;BME280;24904;52.208;21.192;2024-03-23T20:24:44;99152.41;;;5.79;84.00
39177;BME280;24904;52.208;21.192;2024-03-23T20:29:49;99154.69;;;5.74;83.92
39177;BME280;24904;52.208;21.192;2024-03-23T20:34:55;99184.10;;;5.66;83.49
39177;BME280;24904;52.208;21.192;2024-03-23T20:40:00;99197.46;;;5.51;83.38
39177;BME280;24904;52.208;21.192;2024-03-23T20:45:05;99211.29;;;5.49;83.10
39177;BME280;24904;52.208;21.192;2024-03-23T20:50:10;99219.73;;;5.52;83.21
39177;BME280;24904;52.208;21.192;2024-03-23T20:55:16;99209.09;;;5.48;82.93
39177;BME280;24904;52.208;21.192;2024-03-23T21:00:21;99211.40;;;5.46;82.89
39177;BME280;24904;52.208;21.192;2024-03-23T21:05:25;99235.23;;;5.43;82.60
39177;BME280;24904;52.208;21.192;2024-03-23T21:10:30;99244.39;;;5.41;82.65
39177;BME280;24904;52.208;21.192;2024-03-23T21:15:35;99245.16;;;5.41;82.52
39177;BME280;24904;52.208;21.192;2024-03-23T21:20:39;99252.96;;;5.31;81.95
39177;BME280;24904;52.208;21.192;2024-03-23T21:25:44;99253.36;;;5.25;81.79
39177;BME280;24904;52.208;21.192;2024-03-23T21:30:49;99254.55;;;5.22;81.75
39177;BME280;24904;52.208;21.192;2024-03-23T21:35:57;99267.84;;;5.17;81.66
39177;BME280;24904;52.208;21.192;2024-03-23T21:41:02;99275.73;;;5.20;81.95
39177;BME280;24904;52.208;21.192;2024-03-23T21:46:07;99280.00;;;5.24;81.57
39177;BME280;24904;52.208;21.192;2024-03-23T21:51:12;99267.35;;;5.25;81.74
39177;BME280;24904;52.208;21.192;2024-03-23T21:56:16;99256.58;;;5.23;81.23
39177;BME280;24904;52.208;21.192;2024-03-23T22:01:21;99250.30;;;5.19;81.21
39177;BME280;24904;52.208;21.192;2024-03-23T22:06:26;99260.39;;;5.22;81.14
39177;BME280;24904;52.208;21.192;2024-03-23T22:20:20;99273.91;;;5.18;80.77
39177;BME280;24904;52.208;21.192;2024-03-23T22:25:24;99283.98;;;5.20;81.01
39177;BME280;24904;52.208;21.192;2024-03-23T22:30:27;99279.93;;;5.24;81.00
39177;BME280;24904;52.208;21.192;2024-03-23T22:35:30;99279.25;;;5.25;80.77
39177;BME280;24904;52.208;21.192;2024-03-23T22:40:33;99279.55;;;5.25;80.97
39177;BME280;24904;52.208;21.192;2024-03-23T22:45:37;99280.15;;;5.29;81.19
39177;BME280;24904;52.208;21.192;2024-03-23T22:50:44;99274.66;;;5.32;81.07
39177;BME280;24904;52.208;21.192;2024-03-23T22:55:48;99270.73;;;5.28;80.92
39177;BME280;24904;52.208;21.192;2024-03-23T23:00:52;99276.14;;;5.26;81.07
39177;BME280;24904;52.208;21.192;2024-03-23T23:06:00;99286.12;;;5.28;80.96
39177;BME280;24904;52.208;21.192;2024-03-23T23:11:04;99292.44;;;5.30;80.74
39177;BME280;24904;52.208;21.192;2024-03-23T23:16:07;99297.20;;;5.25;80.41
39177;BME280;24904;52.208;21.192;2024-03-23T23:21:10;99306.13;;;5.24;80.53
39177;BME280;24904;52.208;21.192;2024-03-23T23:26:13;99299.77;;;5.24;80.23
39177;BME280;24904;52.208;21.192;2024-03-23T23:31:16;99293.73;;;5.26;80.81
39177;BME280;24904;52.208;21.192;2024-03-23T23:36:19;99286.94;;;5.30;80.63
39177;BME280;24904;52.208;21.192;2024-03-23T23:41:22;99289.19;;;5.35;80.64
39177;BME280;24904;52.208;21.192;2024-03-23T23:46:25;99294.76;;;5.39;80.56
39177;BME280;24904;52.208;21.192;2024-03-23T23:51:29;99299.95;;;5.38;80.29
39177;BME280;24904;52.208;21.192;2024-03-23T23:56:32;99303.58;;;5.36;80.30
